sensor_id;sensor_type;location;lat;lon;timestamp;pressure;altitude;pressure_sealevel;temperature
75273;BMP280;63869;52.344;16.928;2022-12-07T00:02:24;100211.81;;;5.43
75273;BMP280;63869;52.344;16.928;2022-12-07T00:04:49;100207.25;;;5.44
75273;BMP280;63869;52.344;16.928;2022-12-07T00:07:15;100218.28;;;5.53
75273;BMP280;63869;52.344;16.928;2022-12-07T00:09:40;100214.88;;;5.52
75273;BMP280;63869;52.344;16.928;2022-12-07T00:12:07;100211.47;;;5.55
75273;BMP280;63869;52.344;16.928;2022-12-07T00:14:32;100212.19;;;5.59
75273;BMP280;63869;52.344;16.928;2022-12-07T00:16:58;100208.41;;;5.64
75273;BMP280;63869;52.344;16.928;2022-12-07T00:19:23;100217.91;;;5.69
75273;BMP280;63869;52.344;16.928;2022-12-07T00:21:48;100216.41;;;5.71
75273;BMP280;63869;52.344;16.928;2022-12-07T00:24:14;100217.53;;;5.74
75273;BMP280;63869;52.344;16.928;2022-12-07T00:26:40;100218.63;;;5.76
75273;BMP280;63869;52.344;16.928;2022-12-07T00:29:25;100211.06;;;5.78
75273;BMP280;63869;52.344;16.928;2022-12-07T00:31:50;100213.34;;;5.80
75273;BMP280;63869;52.344;16.928;2022-12-07T00:34:18;100200.47;;;5.78
75273;BMP280;63869;52.344;16.928;2022-12-07T00:36:44;100212.59;;;5.83
75273;BMP280;63869;52.344;16.928;2022-12-07T00:39:09;100197.81;;;5.82
75273;BMP280;63869;52.344;16.928;2022-12-07T00:41:35;100202.00;;;5.86
75273;BMP280;63869;52.344;16.928;2022-12-07T00:44:00;100195.56;;;5.87
75273;BMP280;63869;52.344;16.928;2022-12-07T00:46:26;100198.97;;;5.84
75273;BMP280;63869;52.344;16.928;2022-12-07T00:48:52;100182.28;;;5.84
75273;BMP280;63869;52.344;16.928;2022-12-07T00:51:19;100199.31;;;5.93
75273;BMP280;63869;52.344;16.928;2022-12-07T00:53:45;100196.66;;;5.93
75273;BMP280;63869;52.344;16.928;2022-12-07T00:56:14;100192.88;;;5.94
75273;BMP280;63869;52.344;16.928;2022-12-07T00:58:40;100191.34;;;5.93
75273;BMP280;63869;52.344;16.928;2022-12-07T01:01:07;100201.59;;;5.95
75273;BMP280;63869;52.344;16.928;2022-12-07T01:03:33;100192.13;;;5.94
75273;BMP280;63869;52.344;16.928;2022-12-07T01:05:58;100194.78;;;5.94
75273;BMP280;63869;52.344;16.928;2022-12-07T01:08:25;100192.13;;;5.94
75273;BMP280;63869;52.344;16.928;2022-12-07T01:11:06;100197.41;;;5.94
75273;BMP280;63869;52.344;16.928;2022-12-07T01:13:33;100188.31;;;5.95
75273;BMP280;63869;52.344;16.928;2022-12-07T01:16:00;100186.06;;;5.93
75273;BMP280;63869;52.344;16.928;2022-12-07T01:18:27;100190.59;;;5.96
75273;BMP280;63869;52.344;16.928;2022-12-07T01:21:04;100189.88;;;6.00
75273;BMP280;63869;52.344;16.928;2022-12-07T01:23:30;100190.63;;;6.00
75273;BMP280;63869;52.344;16.928;2022-12-07T01:25:58;100159.91;;;5.81
75273;BMP280;63869;52.344;16.928;2022-12-07T01:28:24;100183.03;;;6.02
75273;BMP280;63869;52.344;16.928;2022-12-07T01:33:22;100187.97;;;6.04
75273;BMP280;63869;52.344;16.928;2022-12-07T01:35:47;100178.88;;;6.01
75273;BMP280;63869;52.344;16.928;2022-12-07T01:38:12;100185.31;;;6.04
75273;BMP280;63869;52.344;16.928;2022-12-07T01:40:38;100183.78;;;6.03
75273;BMP280;63869;52.344;16.928;2022-12-07T01:43:09;100195.13;;;6.07
75273;BMP280;63869;52.344;16.928;2022-12-07T01:45:40;100167.84;;;5.95
75273;BMP280;63869;52.344;16.928;2022-12-07T01:48:09;100181.50;;;6.05
75273;BMP280;63869;52.344;16.928;2022-12-07T01:50:35;100197.03;;;6.10
75273;BMP280;63869;52.344;16.928;2022-12-07T01:53:03;100175.81;;;6.06
75273;BMP280;63869;52.344;16.928;2022-12-07T01:55:30;100184.13;;;6.12
75273;BMP280;63869;52.344;16.928;2022-12-07T01:57:56;100175.03;;;6.13
75273;BMP280;63869;52.344;16.928;2022-12-07T02:00:22;100175.41;;;6.15
75273;BMP280;63869;52.344;16.928;2022-12-07T02:03:15;100181.13;;;6.17
75273;BMP280;63869;52.344;16.928;2022-12-07T02:05:43;100177.28;;;6.18
75273;BMP280;63869;52.344;16.928;2022-12-07T02:08:10;100170.09;;;6.18
75273;BMP280;63869;52.344;16.928;2022-12-07T02:10:36;100166.34;;;6.16
75273;BMP280;63869;52.344;16.928;2022-12-07T02:13:23;100177.66;;;6.20
75273;BMP280;63869;52.344;16.928;2022-12-07T02:16:10;100170.09;;;6.22
75273;BMP280;63869;52.344;16.928;2022-12-07T02:18:52;100175.00;;;6.23
75273;BMP280;63869;52.344;16.928;2022-12-07T02:29:20;100145.81;;;6.27
75273;BMP280;63869;52.344;16.928;2022-12-07T02:31:59;100141.66;;;6.19
75273;BMP280;63869;52.344;16.928;2022-12-07T02:37:35;100126.09;;;6.24
75273;BMP280;63869;52.344;16.928;2022-12-07T02:40:18;100129.50;;;6.28
75273;BMP280;63869;52.344;16.928;2022-12-07T02:42:51;100101.13;;;6.08
75273;BMP280;63869;52.344;16.928;2022-12-07T02:45:24;100124.94;;;6.29
75273;BMP280;63869;52.344;16.928;2022-12-07T02:47:52;100130.66;;;6.31
75273;BMP280;63869;52.344;16.928;2022-12-07T02:50:20;100133.31;;;6.31
75273;BMP280;63869;52.344;16.928;2022-12-07T02:52:46;100142.75;;;6.32
75273;BMP280;63869;52.344;16.928;2022-12-07T02:55:12;100132.91;;;6.29
75273;BMP280;63869;52.344;16.928;2022-12-07T02:57:56;100128.34;;;6.29
75273;BMP280;63869;52.344;16.928;2022-12-07T03:00:31;100133.66;;;6.29
75273;BMP280;63869;52.344;16.928;2022-12-07T03:03:04;100135.94;;;6.27
75273;BMP280;63869;52.344;16.928;2022-12-07T03:08:29;100148.06;;;6.32
75273;BMP280;63869;52.344;16.928;2022-12-07T03:10:59;100142.75;;;6.32
75273;BMP280;63869;52.344;16.928;2022-12-07T03:14:29;100145.41;;;6.32
75273;BMP280;63869;52.344;16.928;2022-12-07T03:16:57;100153.00;;;6.30
75273;BMP280;63869;52.344;16.928;2022-12-07T03:19:24;100142.38;;;6.30
75273;BMP280;63869;52.344;16.928;2022-12-07T03:21:56;100137.84;;;6.27
75273;BMP280;63869;52.344;16.928;2022-12-07T03:24:26;100149.59;;;6.29
75273;BMP280;63869;52.344;16.928;2022-12-07T03:29:34;100145.41;;;6.28
75273;BMP280;63869;52.344;16.928;2022-12-07T03:32:06;100121.59;;;6.11
75273;BMP280;63869;52.344;16.928;2022-12-07T03:34:45;100134.81;;;6.25
75273;BMP280;63869;52.344;16.928;2022-12-07T03:37:20;100129.91;;;6.20
75273;BMP280;63869;52.344;16.928;2022-12-07T03:42:35;100137.88;;;6.20
75273;BMP280;63869;52.344;16.928;2022-12-07T03:45:02;100128.44;;;6.15
75273;BMP280;63869;52.344;16.928;2022-12-07T03:50:16;100141.25;;;6.24
75273;BMP280;63869;52.344;16.928;2022-12-07T03:52:56;100131.41;;;6.24
75273;BMP280;63869;52.344;16.928;2022-12-07T03:55:29;100131.41;;;6.21
75273;BMP280;63869;52.344;16.928;2022-12-07T03:58:00;100112.50;;;6.15
75273;BMP280;63869;52.344;16.928;2022-12-07T04:00:26;100119.28;;;6.20
75273;BMP280;63869;52.344;16.928;2022-12-07T04:02:52;100125.31;;;6.27
75273;BMP280;63869;52.344;16.928;2022-12-07T04:05:18;100125.69;;;6.29
75273;BMP280;63869;52.344;16.928;2022-12-07T04:07:43;100127.22;;;6.31
75273;BMP280;63869;52.344;16.928;2022-12-07T04:10:09;100125.69;;;6.33
75273;BMP280;63869;52.344;16.928;2022-12-07T04:12:35;100127.19;;;6.34
75273;BMP280;63869;52.344;16.928;2022-12-07T04:15:00;100124.91;;;6.36
75273;BMP280;63869;52.344;16.928;2022-12-07T04:17:26;100114.72;;;6.31
75273;BMP280;63869;52.344;16.928;2022-12-07T04:19:51;100126.81;;;6.32
75273;BMP280;63869;52.344;16.928;2022-12-07T04:22:16;100115.47;;;6.32
75273;BMP280;63869;52.344;16.928;2022-12-07T04:24:41;100120.75;;;6.39
75273;BMP280;63869;52.344;16.928;2022-12-07T04:27:07;100109.00;;;6.36
75273;BMP280;63869;52.344;16.928;2022-12-07T04:29:32;100106.72;;;6.38
75273;BMP280;63869;52.344;16.928;2022-12-07T04:31:57;100101.41;;;6.38
75273;BMP280;63869;52.344;16.928;2022-12-07T04:34:23;100093.44;;;6.38
75273;BMP280;63869;52.344;16.928;2022-12-07T04:36:48;100095.72;;;6.36
75273;BMP280;63869;52.344;16.928;2022-12-07T04:39:22;100096.09;;;6.38
75273;BMP280;63869;52.344;16.928;2022-12-07T04:41:48;100091.19;;;6.33
75273;BMP280;63869;52.344;16.928;2022-12-07T04:44:14;100100.28;;;6.36
75273;BMP280;63869;52.344;16.928;2022-12-07T04:46:40;100107.84;;;6.37
75273;BMP280;63869;52.344;16.928;2022-12-07T04:49:05;100099.88;;;6.37
75273;BMP280;63869;52.344;16.928;2022-12-07T04:51:31;100098.00;;;6.38
75273;BMP280;63869;52.344;16.928;2022-12-07T04:53:56;100095.72;;;6.36
75273;BMP280;63869;52.344;16.928;2022-12-07T04:56:22;100093.44;;;6.38
75273;BMP280;63869;52.344;16.928;2022-12-07T04:58:48;100089.28;;;6.37
75273;BMP280;63869;52.344;16.928;2022-12-07T05:01:15;100089.63;;;6.39
75273;BMP280;63869;52.344;16.928;2022-12-07T05:03:41;100086.97;;;6.39
75273;BMP280;63869;52.344;16.928;2022-12-07T05:06:07;100087.38;;;6.38
75273;BMP280;63869;52.344;16.928;2022-12-07T05:08:33;100075.25;;;6.37
75273;BMP280;63869;52.344;16.928;2022-12-07T05:10:59;100080.56;;;6.37
75273;BMP280;63869;52.344;16.928;2022-12-07T05:13:25;100072.97;;;6.35
75273;BMP280;63869;52.344;16.928;2022-12-07T05:15:50;100065.03;;;6.32
75273;BMP280;63869;52.344;16.928;2022-12-07T05:18:16;100075.25;;;6.33
75273;BMP280;63869;52.344;16.928;2022-12-07T05:20:42;100076.00;;;6.34
75273;BMP280;63869;52.344;16.928;2022-12-07T05:23:07;100078.31;;;6.28
75273;BMP280;63869;52.344;16.928;2022-12-07T05:25:33;100073.00;;;6.28
75273;BMP280;63869;52.344;16.928;2022-12-07T05:27:58;100068.06;;;6.30
75273;BMP280;63869;52.344;16.928;2022-12-07T05:30:24;100069.97;;;6.29
75273;BMP280;63869;52.344;16.928;2022-12-07T05:32:50;100069.59;;;6.27
75273;BMP280;63869;52.344;16.928;2022-12-07T05:35:16;100068.06;;;6.26
75273;BMP280;63869;52.344;16.928;2022-12-07T05:37:41;100064.28;;;6.24
75273;BMP280;63869;52.344;16.928;2022-12-07T05:40:07;100073.38;;;6.30
75273;BMP280;63869;52.344;16.928;2022-12-07T05:42:33;100064.28;;;6.24
75273;BMP280;63869;52.344;16.928;2022-12-07T05:44:58;100063.91;;;6.29
75273;BMP280;63869;52.344;16.928;2022-12-07T05:47:23;100067.31;;;6.29
75273;BMP280;63869;52.344;16.928;2022-12-07T05:49:48;100060.09;;;6.30
75273;BMP280;63869;52.344;16.928;2022-12-07T05:52:14;100069.59;;;6.31
75273;BMP280;63869;52.344;16.928;2022-12-07T05:54:39;100058.59;;;6.29
75273;BMP280;63869;52.344;16.928;2022-12-07T05:57:04;100063.50;;;6.31
75273;BMP280;63869;52.344;16.928;2022-12-07T05:59:30;100055.53;;;6.31
75273;BMP280;63869;52.344;16.928;2022-12-07T06:02:00;100054.78;;;6.30
75273;BMP280;63869;52.344;16.928;2022-12-07T06:04:29;100028.31;;;6.12
75273;BMP280;63869;52.344;16.928;2022-12-07T06:06:55;100068.06;;;6.30
75273;BMP280;63869;52.344;16.928;2022-12-07T06:09:22;100060.88;;;6.27
75273;BMP280;63869;52.344;16.928;2022-12-07T06:11:47;100058.59;;;6.25
75273;BMP280;63869;52.344;16.928;2022-12-07T06:14:31;100051.03;;;6.20
75273;BMP280;63869;52.344;16.928;2022-12-07T06:16:57;100059.38;;;6.22
75273;BMP280;63869;52.344;16.928;2022-12-07T06:19:22;100068.09;;;6.19
75273;BMP280;63869;52.344;16.928;2022-12-07T06:21:48;100065.50;;;6.16
75273;BMP280;63869;52.344;16.928;2022-12-07T06:24:14;100069.66;;;6.13
75273;BMP280;63869;52.344;16.928;2022-12-07T06:26:40;100067.00;;;6.10
75273;BMP280;63869;52.344;16.928;2022-12-07T06:29:06;100065.88;;;6.07
75273;BMP280;63869;52.344;16.928;2022-12-07T06:31:31;100047.34;;;5.96
75273;BMP280;63869;52.344;16.928;2022-12-07T06:34:01;100059.47;;;6.01
75273;BMP280;63869;52.344;16.928;2022-12-07T06:36:27;100059.06;;;5.99
75273;BMP280;63869;52.344;16.928;2022-12-07T06:38:53;100041.28;;;5.92
75273;BMP280;63869;52.344;16.928;2022-12-07T06:41:18;100047.34;;;5.96
75273;BMP280;63869;52.344;16.928;2022-12-07T06:43:43;100051.13;;;5.95
75273;BMP280;63869;52.344;16.928;2022-12-07T06:46:08;100054.94;;;5.94
75273;BMP280;63869;52.344;16.928;2022-12-07T06:48:34;100053.41;;;5.93
75273;BMP280;63869;52.344;16.928;2022-12-07T06:50:59;100048.88;;;5.90
75273;BMP280;63869;52.344;16.928;2022-12-07T06:53:25;100063.25;;;5.93
75273;BMP280;63869;52.344;16.928;2022-12-07T06:55:50;100045.88;;;5.85
75273;BMP280;63869;52.344;16.928;2022-12-07T06:58:16;100042.84;;;5.86
75273;BMP280;63869;52.344;16.928;2022-12-07T07:00:42;100057.63;;;5.87
75273;BMP280;63869;52.344;16.928;2022-12-07T07:03:07;100060.63;;;5.89
75273;BMP280;63869;52.344;16.928;2022-12-07T07:05:33;100057.25;;;5.89
75273;BMP280;63869;52.344;16.928;2022-12-07T07:07:58;100053.47;;;5.86
75273;BMP280;63869;52.344;16.928;2022-12-07T07:10:23;100053.84;;;5.85
75273;BMP280;63869;52.344;16.928;2022-12-07T07:12:49;100048.91;;;5.83
75273;BMP280;63869;52.344;16.928;2022-12-07T07:15:14;100041.31;;;5.78
75273;BMP280;63869;52.344;16.928;2022-12-07T07:17:39;100039.06;;;5.80
75273;BMP280;63869;52.344;16.928;2022-12-07T07:20:05;100034.91;;;5.76
75273;BMP280;63869;52.344;16.928;2022-12-07T07:22:30;100045.88;;;5.78
75273;BMP280;63869;52.344;16.928;2022-12-07T07:24:56;100039.44;;;5.79
75273;BMP280;63869;52.344;16.928;2022-12-07T07:27:21;100045.13;;;5.77
75273;BMP280;63869;52.344;16.928;2022-12-07T07:29:46;100042.09;;;5.79
75273;BMP280;63869;52.344;16.928;2022-12-07T07:32:12;100041.31;;;5.78
75273;BMP280;63869;52.344;16.928;2022-12-07T07:34:37;100039.09;;;5.73
75273;BMP280;63869;52.344;16.928;2022-12-07T07:37:03;100038.72;;;5.50
75273;BMP280;63869;52.344;16.928;2022-12-07T07:39:28;100023.63;;;5.04
75273;BMP280;63869;52.344;16.928;2022-12-07T07:41:53;100036.09;;;4.75
75273;BMP280;63869;52.344;16.928;2022-12-07T07:44:18;100020.16;;;4.43
75273;BMP280;63869;52.344;16.928;2022-12-07T07:46:44;100038.97;;;4.24
75273;BMP280;63869;52.344;16.928;2022-12-07T07:49:10;100046.66;;;3.78
75273;BMP280;63869;52.344;16.928;2022-12-07T07:51:36;100002.97;;;3.32
75273;BMP280;63869;52.344;16.928;2022-12-07T07:54:02;100029.38;;;3.32
75273;BMP280;63869;52.344;16.928;2022-12-07T07:56:27;100024.00;;;3.18
75273;BMP280;63869;52.344;16.928;2022-12-07T07:58:52;100041.63;;;3.07
75273;BMP280;63869;52.344;16.928;2022-12-07T08:01:18;100038.84;;;2.93
75273;BMP280;63869;52.344;16.928;2022-12-07T08:03:47;100005.44;;;2.70
75273;BMP280;63869;52.344;16.928;2022-12-07T08:06:12;100029.75;;;2.87
75273;BMP280;63869;52.344;16.928;2022-12-07T08:08:38;100022.50;;;2.80
75273;BMP280;63869;52.344;16.928;2022-12-07T08:11:07;100025.91;;;2.81
75273;BMP280;63869;52.344;16.928;2022-12-07T08:13:32;100033.56;;;2.93
75273;BMP280;63869;52.344;16.928;2022-12-07T08:16:03;100001.03;;;2.82
75273;BMP280;63869;52.344;16.928;2022-12-07T08:18:29;100021.66;;;3.13
75273;BMP280;63869;52.344;16.928;2022-12-07T08:20:59;100011.91;;;3.17
75273;BMP280;63869;52.344;16.928;2022-12-07T08:23:25;99991.59;;;3.28
75273;BMP280;63869;52.344;16.928;2022-12-07T08:25:50;99990.56;;;3.36
75273;BMP280;63869;52.344;16.928;2022-12-07T08:28:16;99986.44;;;3.46
75273;BMP280;63869;52.344;16.928;2022-12-07T08:30:41;100012.56;;;3.58
75273;BMP280;63869;52.344;16.928;2022-12-07T08:33:06;99990.22;;;3.45
75273;BMP280;63869;52.344;16.928;2022-12-07T08:35:33;99989.84;;;3.47
75273;BMP280;63869;52.344;16.928;2022-12-07T08:37:59;100016.31;;;3.54
75273;BMP280;63869;52.344;16.928;2022-12-07T08:40:24;100000.84;;;3.49
75273;BMP280;63869;52.344;16.928;2022-12-07T08:42:50;100008.25;;;3.32
75273;BMP280;63869;52.344;16.928;2022-12-07T08:45:17;100013.53;;;3.32
75273;BMP280;63869;52.344;16.928;2022-12-07T08:47:56;100010.91;;;3.36
75273;BMP280;63869;52.344;16.928;2022-12-07T08:50:24;100011.19;;;3.20
75273;BMP280;63869;52.344;16.928;2022-12-07T08:52:52;100019.75;;;3.10
75273;BMP280;63869;52.344;16.928;2022-12-07T08:55:18;100014.06;;;3.04
75273;BMP280;63869;52.344;16.928;2022-12-07T08:57:44;100009.53;;;3.05
75273;BMP280;63869;52.344;16.928;2022-12-07T09:00:10;100001.97;;;3.03
75273;BMP280;63869;52.344;16.928;2022-12-07T09:02:36;99980.38;;;2.91
75273;BMP280;63869;52.344;16.928;2022-12-07T09:05:01;99984.28;;;3.07
75273;BMP280;63869;52.344;16.928;2022-12-07T09:07:27;99993.09;;;3.22
75273;BMP280;63869;52.344;16.928;2022-12-07T09:09:52;99985.59;;;3.31
75273;BMP280;63869;52.344;16.928;2022-12-07T09:12:18;99981.88;;;3.39
75273;BMP280;63869;52.344;16.928;2022-12-07T09:14:43;99973.91;;;3.32
75273;BMP280;63869;52.344;16.928;2022-12-07T09:17:10;99979.25;;;3.39
75273;BMP280;63869;52.344;16.928;2022-12-07T09:19:35;99976.59;;;3.36
75273;BMP280;63869;52.344;16.928;2022-12-07T09:22:01;99972.06;;;3.36
75273;BMP280;63869;52.344;16.928;2022-12-07T09:24:26;99969.03;;;3.34
75273;BMP280;63869;52.344;16.928;2022-12-07T09:26:52;99952.34;;;3.23
75273;BMP280;63869;52.344;16.928;2022-12-07T09:29:17;99957.63;;;3.23
75273;BMP280;63869;52.344;16.928;2022-12-07T09:31:42;99958.38;;;3.27
75273;BMP280;63869;52.344;16.928;2022-12-07T09:34:08;99954.59;;;3.25
75273;BMP280;63869;52.344;16.928;2022-12-07T09:36:33;99956.13;;;3.26
75273;BMP280;63869;52.344;16.928;2022-12-07T09:38:58;99957.25;;;3.21
75273;BMP280;63869;52.344;16.928;2022-12-07T09:41:27;99955.00;;;3.23
75273;BMP280;63869;52.344;16.928;2022-12-07T09:43:59;99952.34;;;3.23
75273;BMP280;63869;52.344;16.928;2022-12-07T09:46:29;99917.78;;;2.88
75273;BMP280;63869;52.344;16.928;2022-12-07T09:48:56;99951.09;;;3.10
75273;BMP280;63869;52.344;16.928;2022-12-07T09:51:23;99943.56;;;3.08
75273;BMP280;63869;52.344;16.928;2022-12-07T09:53:49;99947.03;;;3.16
75273;BMP280;63869;52.344;16.928;2022-12-07T09:56:18;99922.06;;;3.10
75273;BMP280;63869;52.344;16.928;2022-12-07T09:58:45;99935.00;;;3.22
75273;BMP280;63869;52.344;16.928;2022-12-07T10:01:21;99926.28;;;3.18
75273;BMP280;63869;52.344;16.928;2022-12-07T10:03:55;99917.97;;;3.16
75273;BMP280;63869;52.344;16.928;2022-12-07T10:06:23;99918.75;;;3.24
75273;BMP280;63869;52.344;16.928;2022-12-07T10:08:49;99917.63;;;3.21
75273;BMP280;63869;52.344;16.928;2022-12-07T10:11:14;99917.63;;;3.21
75273;BMP280;63869;52.344;16.928;2022-12-07T10:13:44;99911.59;;;3.24
75273;BMP280;63869;52.344;16.928;2022-12-07T10:18:49;99909.31;;;3.19
75273;BMP280;63869;52.344;16.928;2022-12-07T10:24:27;99913.09;;;3.18
75273;BMP280;63869;52.344;16.928;2022-12-07T10:26:53;99907.00;;;3.14
75273;BMP280;63869;52.344;16.928;2022-12-07T10:29:30;99895.63;;;3.03
75273;BMP280;63869;52.344;16.928;2022-12-07T10:32:05;99892.56;;;2.94
75273;BMP280;63869;52.344;16.928;2022-12-07T10:34:36;99900.09;;;2.92
75273;BMP280;63869;52.344;16.928;2022-12-07T10:37:17;99917.03;;;2.91
75273;BMP280;63869;52.344;16.928;2022-12-07T10:39:48;99905.31;;;2.85
75273;BMP280;63869;52.344;16.928;2022-12-07T10:42:29;99900.72;;;2.78
75273;BMP280;63869;52.344;16.928;2022-12-07T10:47:46;99871.94;;;2.59
75273;BMP280;63869;52.344;16.928;2022-12-07T10:51:15;99898.78;;;2.71
75273;BMP280;63869;52.344;16.928;2022-12-07T10:59:23;99880.69;;;2.73
75273;BMP280;63869;52.344;16.928;2022-12-07T11:07:45;99850.59;;;2.82
75273;BMP280;63869;52.344;16.928;2022-12-07T11:10:19;99874.91;;;3.05
75273;BMP280;63869;52.344;16.928;2022-12-07T11:15:43;99855.72;;;3.15
75273;BMP280;63869;52.344;16.928;2022-12-07T11:18:33;99842.09;;;3.10
75273;BMP280;63869;52.344;16.928;2022-12-07T11:21:15;99842.75;;;2.96
75273;BMP280;63869;52.344;16.928;2022-12-07T11:32:40;99849.19;;;2.47
75273;BMP280;63869;52.344;16.928;2022-12-07T11:35:17;99821.25;;;2.39
75273;BMP280;63869;52.344;16.928;2022-12-07T11:37:49;99824.72;;;2.47
75273;BMP280;63869;52.344;16.928;2022-12-07T11:40:25;99834.88;;;2.48
75273;BMP280;63869;52.344;16.928;2022-12-07T11:42:59;99827.75;;;2.52
75273;BMP280;63869;52.344;16.928;2022-12-07T11:45:29;99825.19;;;2.59
75273;BMP280;63869;52.344;16.928;2022-12-07T11:48:03;99822.63;;;2.70
75273;BMP280;63869;52.344;16.928;2022-12-07T11:56:01;99816.25;;;2.74
75273;BMP280;63869;52.344;16.928;2022-12-07T12:01:29;99824.56;;;2.76
75273;BMP280;63869;52.344;16.928;2022-12-07T12:06:44;99794.41;;;2.78
75273;BMP280;63869;52.344;16.928;2022-12-07T12:09:15;99793.00;;;2.94
75273;BMP280;63869;52.344;16.928;2022-12-07T12:20:50;99807.66;;;3.68
75273;BMP280;63869;52.344;16.928;2022-12-07T12:23:35;99777.75;;;3.50
75273;BMP280;63869;52.344;16.928;2022-12-07T12:26:03;99804.97;;;3.61
75273;BMP280;63869;52.344;16.928;2022-12-07T12:28:38;99789.47;;;3.56
75273;BMP280;63869;52.344;16.928;2022-12-07T12:31:09;99787.97;;;3.55
75273;BMP280;63869;52.344;16.928;2022-12-07T12:33:37;99774.38;;;3.56
75273;BMP280;63869;52.344;16.928;2022-12-07T12:39:08;99801.56;;;3.57
75273;BMP280;63869;52.344;16.928;2022-12-07T12:44:02;99803.78;;;3.41
75273;BMP280;63869;52.344;16.928;2022-12-07T12:48:54;99793.16;;;3.23
75273;BMP280;63869;52.344;16.928;2022-12-07T12:51:43;99792.00;;;3.24
75273;BMP280;63869;52.344;16.928;2022-12-07T12:59:19;99787.16;;;3.36
75273;BMP280;63869;52.344;16.928;2022-12-07T13:02:46;99783.69;;;3.25
75273;BMP280;63869;52.344;16.928;2022-12-07T13:15:51;99805.22;;;3.20
75273;BMP280;63869;52.344;16.928;2022-12-07T13:20:57;99773.03;;;2.93
75273;BMP280;63869;52.344;16.928;2022-12-07T13:23:31;99792.28;;;3.01
75273;BMP280;63869;52.344;16.928;2022-12-07T13:26:24;99797.22;;;3.06
75273;BMP280;63869;52.344;16.928;2022-12-07T13:29:15;99791.06;;;2.84
75273;BMP280;63869;52.344;16.928;2022-12-07T13:31:46;99802.03;;;2.90
75273;BMP280;63869;52.344;16.928;2022-12-07T13:36:56;99822.56;;;2.66
75273;BMP280;63869;52.344;16.928;2022-12-07T13:39:24;99780.94;;;2.38
75273;BMP280;63869;52.344;16.928;2022-12-07T13:41:58;99816.00;;;2.42
75273;BMP280;63869;52.344;16.928;2022-12-07T13:44:26;99818.69;;;2.50
75273;BMP280;63869;52.344;16.928;2022-12-07T13:47:17;99816.00;;;2.39
75273;BMP280;63869;52.344;16.928;2022-12-07T13:49:54;99827.31;;;2.43
75273;BMP280;63869;52.344;16.928;2022-12-07T13:55:01;99832.56;;;2.39
75273;BMP280;63869;52.344;16.928;2022-12-07T13:57:29;99847.63;;;2.39
75273;BMP280;63869;52.344;16.928;2022-12-07T13:59:55;99842.34;;;2.39
75273;BMP280;63869;52.344;16.928;2022-12-07T14:02:29;99835.50;;;2.31
75273;BMP280;63869;52.344;16.928;2022-12-07T14:05:15;99843.44;;;2.34
75273;BMP280;63869;52.344;16.928;2022-12-07T14:08:02;99836.63;;;2.30
75273;BMP280;63869;52.344;16.928;2022-12-07T14:10:33;99837.75;;;2.29
75273;BMP280;63869;52.344;16.928;2022-12-07T14:13:01;99841.91;;;2.30
75273;BMP280;63869;52.344;16.928;2022-12-07T14:15:31;99857.38;;;2.35
75273;BMP280;63869;52.344;16.928;2022-12-07T14:17:58;99861.50;;;2.29
75273;BMP280;63869;52.344;16.928;2022-12-07T14:20:40;99861.50;;;2.29
75273;BMP280;63869;52.344;16.928;2022-12-07T14:23:23;99853.91;;;2.24
75273;BMP280;63869;52.344;16.928;2022-12-07T14:25:51;99843.28;;;2.17
75273;BMP280;63869;52.344;16.928;2022-12-07T14:28:34;99855.81;;;2.27
75273;BMP280;63869;52.344;16.928;2022-12-07T14:31:00;99856.25;;;2.36
75273;BMP280;63869;52.344;16.928;2022-12-07T14:33:26;99867.88;;;2.28
75273;BMP280;63869;52.344;16.928;2022-12-07T14:35:52;99876.78;;;2.16
75273;BMP280;63869;52.344;16.928;2022-12-07T14:38:21;99861.91;;;1.97
75273;BMP280;63869;52.344;16.928;2022-12-07T14:40:47;99878.84;;;1.96
75273;BMP280;63869;52.344;16.928;2022-12-07T14:43:14;99903.91;;;1.83
75273;BMP280;63869;52.344;16.928;2022-12-07T14:45:41;99875.88;;;1.68
75273;BMP280;63869;52.344;16.928;2022-12-07T14:48:11;99871.28;;;1.31
75273;BMP280;63869;52.344;16.928;2022-12-07T14:50:40;99886.59;;;1.26
75273;BMP280;63869;52.344;16.928;2022-12-07T14:53:13;99884.84;;;1.10
75273;BMP280;63869;52.344;16.928;2022-12-07T14:55:39;99894.75;;;1.17
75273;BMP280;63869;52.344;16.928;2022-12-07T14:58:04;99882.31;;;1.14
75273;BMP280;63869;52.344;16.928;2022-12-07T15:00:29;99898.09;;;1.14
75273;BMP280;63869;52.344;16.928;2022-12-07T15:02:56;99880.72;;;1.09
75273;BMP280;63869;52.344;16.928;2022-12-07T15:05:21;99874.13;;;0.96
75273;BMP280;63869;52.344;16.928;2022-12-07T15:07:47;99891.84;;;0.99
75273;BMP280;63869;52.344;16.928;2022-12-07T15:12:40;99854.59;;;0.74
75273;BMP280;63869;52.344;16.928;2022-12-07T15:15:06;99892.13;;;1.17
75273;BMP280;63869;52.344;16.928;2022-12-07T15:17:31;99877.81;;;1.14
75273;BMP280;63869;52.344;16.928;2022-12-07T15:19:56;99902.63;;;1.43
75273;BMP280;63869;52.344;16.928;2022-12-07T15:22:22;99900.41;;;1.45
75273;BMP280;63869;52.344;16.928;2022-12-07T15:24:47;99895.16;;;1.45
75273;BMP280;63869;52.344;16.928;2022-12-07T15:27:12;99893.56;;;1.41
75273;BMP280;63869;52.344;16.928;2022-12-07T15:29:38;99873.44;;;1.26
75273;BMP280;63869;52.344;16.928;2022-12-07T15:32:03;99881.81;;;1.35
75273;BMP280;63869;52.344;16.928;2022-12-07T15:34:28;99891.69;;;1.41
75273;BMP280;63869;52.344;16.928;2022-12-07T15:36:54;99898.13;;;1.44
75273;BMP280;63869;52.344;16.928;2022-12-07T15:39:19;99901.13;;;1.42
75273;BMP280;63869;52.344;16.928;2022-12-07T15:41:44;99903.03;;;1.45
75273;BMP280;63869;52.344;16.928;2022-12-07T15:44:12;99905.19;;;1.40
75273;BMP280;63869;52.344;16.928;2022-12-07T15:46:56;99890.09;;;1.33
75273;BMP280;63869;52.344;16.928;2022-12-07T15:49:22;99898.38;;;1.35
75273;BMP280;63869;52.344;16.928;2022-12-07T15:51:47;99901.81;;;1.39
75273;BMP280;63869;52.344;16.928;2022-12-07T15:54:19;99905.28;;;1.43
75273;BMP280;63869;52.344;16.928;2022-12-07T15:56:44;99897.78;;;1.45
75273;BMP280;63869;52.344;16.928;2022-12-07T15:59:09;99900.25;;;1.61
75273;BMP280;63869;52.344;16.928;2022-12-07T16:01:35;99913.25;;;1.77
75273;BMP280;63869;52.344;16.928;2022-12-07T16:04:00;99915.63;;;1.89